sensor_id;sensor_type;location;lat;lon;timestamp;P1;durP1;ratioP1;P2;durP2;ratioP2
15340;SDS011;7770;52.158;5.372;2023-07-16T00:02:14;9.83;;;3.60;;
15340;SDS011;7770;52.158;5.372;2023-07-16T00:05:00;9.70;;;3.77;;
15340;SDS011;7770;52.158;5.372;2023-07-16T00:07:46;6.33;;;3.53;;
15340;SDS011;7770;52.158;5.372;2023-07-16T00:10:38;6.87;;;3.70;;
15340;SDS011;7770;52.158;5.372;2023-07-16T00:13:24;7.00;;;3.67;;
15340;SDS011;7770;52.158;5.372;2023-07-16T00:16:10;8.00;;;3.90;;
15340;SDS011;7770;52.158;5.372;2023-07-16T00:18:56;9.57;;;3.90;;
15340;SDS011;7770;52.158;5.372;2023-07-16T00:21:42;6.70;;;4.17;;
15340;SDS011;7770;52.158;5.372;2023-07-16T00:24:28;11.00;;;4.37;;
15340;SDS011;7770;52.158;5.372;2023-07-16T00:27:14;8.20;;;3.93;;
15340;SDS011;7770;52.158;5.372;2023-07-16T00:30:00;9.40;;;4.83;;
15340;SDS011;7770;52.158;5.372;2023-07-16T00:32:46;8.20;;;4.40;;
15340;SDS011;7770;52.158;5.372;2023-07-16T00:35:32;9.20;;;4.87;;
15340;SDS011;7770;52.158;5.372;2023-07-16T00:38:18;12.20;;;4.40;;
15340;SDS011;7770;52.158;5.372;2023-07-16T00:41:05;8.63;;;4.73;;
15340;SDS011;7770;52.158;5.372;2023-07-16T00:43:51;8.10;;;4.37;;
15340;SDS011;7770;52.158;5.372;2023-07-16T00:46:39;11.07;;;5.17;;
15340;SDS011;7770;52.158;5.372;2023-07-16T00:49:25;9.47;;;4.53;;
15340;SDS011;7770;52.158;5.372;2023-07-16T00:52:14;8.47;;;4.67;;
15340;SDS011;7770;52.158;5.372;2023-07-16T00:55:04;9.40;;;4.63;;
15340;SDS011;7770;52.158;5.372;2023-07-16T00:57:52;8.47;;;4.40;;
15340;SDS011;7770;52.158;5.372;2023-07-16T01:00:41;8.00;;;4.57;;
15340;SDS011;7770;52.158;5.372;2023-07-16T01:03:27;9.53;;;5.17;;
15340;SDS011;7770;52.158;5.372;2023-07-16T01:06:31;6.90;;;4.77;;
15340;SDS011;7770;52.158;5.372;2023-07-16T01:09:35;10.77;;;5.07;;
15340;SDS011;7770;52.158;5.372;2023-07-16T01:12:25;9.97;;;4.80;;
15340;SDS011;7770;52.158;5.372;2023-07-16T01:15:12;10.10;;;4.57;;
15340;SDS011;7770;52.158;5.372;2023-07-16T01:17:58;7.67;;;4.30;;
15340;SDS011;7770;52.158;5.372;2023-07-16T01:20:44;7.83;;;4.60;;
15340;SDS011;7770;52.158;5.372;2023-07-16T01:23:45;8.63;;;5.30;;
15340;SDS011;7770;52.158;5.372;2023-07-16T01:27:59;10.23;;;4.80;;
15340;SDS011;7770;52.158;5.372;2023-07-16T01:30:27;11.63;;;5.00;;
15340;SDS011;7770;52.158;5.372;2023-07-16T01:33:14;7.60;;;5.23;;
15340;SDS011;7770;52.158;5.372;2023-07-16T01:36:02;11.37;;;5.50;;
15340;SDS011;7770;52.158;5.372;2023-07-16T01:38:49;10.70;;;5.40;;
15340;SDS011;7770;52.158;5.372;2023-07-16T01:41:35;12.33;;;5.83;;
15340;SDS011;7770;52.158;5.372;2023-07-16T01:44:22;9.90;;;5.50;;
15340;SDS011;7770;52.158;5.372;2023-07-16T01:47:09;9.57;;;5.60;;
15340;SDS011;7770;52.158;5.372;2023-07-16T01:49:59;9.27;;;5.40;;
15340;SDS011;7770;52.158;5.372;2023-07-16T01:52:45;9.13;;;5.20;;
15340;SDS011;7770;52.158;5.372;2023-07-16T01:55:31;9.43;;;5.57;;
15340;SDS011;7770;52.158;5.372;2023-07-16T01:58:17;9.80;;;5.83;;
15340;SDS011;7770;52.158;5.372;2023-07-16T02:01:03;11.07;;;6.07;;
15340;SDS011;7770;52.158;5.372;2023-07-16T02:03:49;10.13;;;5.80;;
15340;SDS011;7770;52.158;5.372;2023-07-16T02:06:35;11.27;;;5.77;;
15340;SDS011;7770;52.158;5.372;2023-07-16T02:09:21;10.67;;;6.33;;
15340;SDS011;7770;52.158;5.372;2023-07-16T02:12:07;12.17;;;6.27;;
15340;SDS011;7770;52.158;5.372;2023-07-16T02:14:53;15.70;;;6.57;;
15340;SDS011;7770;52.158;5.372;2023-07-16T02:17:39;11.70;;;6.27;;
15340;SDS011;7770;52.158;5.372;2023-07-16T02:20:25;12.00;;;6.27;;
15340;SDS011;7770;52.158;5.372;2023-07-16T02:23:11;12.07;;;6.63;;
15340;SDS011;7770;52.158;5.372;2023-07-16T02:25:57;15.83;;;6.70;;
15340;SDS011;7770;52.158;5.372;2023-07-16T02:28:43;10.00;;;6.33;;
15340;SDS011;7770;52.158;5.372;2023-07-16T02:31:29;11.30;;;6.37;;
15340;SDS011;7770;52.158;5.372;2023-07-16T02:34:15;10.00;;;7.10;;
15340;SDS011;7770;52.158;5.372;2023-07-16T02:37:01;12.67;;;6.80;;
15340;SDS011;7770;52.158;5.372;2023-07-16T02:39:47;14.07;;;7.07;;
15340;SDS011;7770;52.158;5.372;2023-07-16T02:42:33;11.37;;;6.83;;
15340;SDS011;7770;52.158;5.372;2023-07-16T02:45:19;13.53;;;6.30;;
15340;SDS011;7770;52.158;5.372;2023-07-16T02:48:05;13.50;;;6.80;;
15340;SDS011;7770;52.158;5.372;2023-07-16T02:50:52;9.83;;;6.47;;
15340;SDS011;7770;52.158;5.372;2023-07-16T02:53:38;12.70;;;6.20;;
15340;SDS011;7770;52.158;5.372;2023-07-16T02:56:24;9.23;;;6.23;;
15340;SDS011;7770;52.158;5.372;2023-07-16T02:59:10;13.53;;;7.10;;
15340;SDS011;7770;52.158;5.372;2023-07-16T03:01:56;14.20;;;6.57;;
15340;SDS011;7770;52.158;5.372;2023-07-16T03:04:42;9.27;;;6.43;;
15340;SDS011;7770;52.158;5.372;2023-07-16T03:07:28;14.10;;;6.37;;
15340;SDS011;7770;52.158;5.372;2023-07-16T03:10:14;8.93;;;5.87;;
15340;SDS011;7770;52.158;5.372;2023-07-16T03:13:00;11.83;;;6.63;;
15340;SDS011;7770;52.158;5.372;2023-07-16T03:15:46;10.97;;;6.27;;
15340;SDS011;7770;52.158;5.372;2023-07-16T03:18:32;11.33;;;6.23;;
15340;SDS011;7770;52.158;5.372;2023-07-16T03:21:18;9.57;;;5.90;;
15340;SDS011;7770;52.158;5.372;2023-07-16T03:24:04;10.77;;;6.00;;
15340;SDS011;7770;52.158;5.372;2023-07-16T03:26:50;10.00;;;5.87;;
15340;SDS011;7770;52.158;5.372;2023-07-16T03:29:36;12.23;;;6.17;;
15340;SDS011;7770;52.158;5.372;2023-07-16T03:32:22;13.77;;;6.53;;
15340;SDS011;7770;52.158;5.372;2023-07-16T03:35:08;10.53;;;6.40;;
15340;SDS011;7770;52.158;5.372;2023-07-16T03:37:54;9.10;;;5.70;;
15340;SDS011;7770;52.158;5.372;2023-07-16T03:40:46;12.53;;;6.13;;
15340;SDS011;7770;52.158;5.372;2023-07-16T03:43:33;11.00;;;6.10;;
15340;SDS011;7770;52.158;5.372;2023-07-16T03:46:19;10.37;;;6.13;;
15340;SDS011;7770;52.158;5.372;2023-07-16T03:49:08;10.20;;;5.87;;
15340;SDS011;7770;52.158;5.372;2023-07-16T03:51:54;11.67;;;6.07;;
15340;SDS011;7770;52.158;5.372;2023-07-16T03:54:40;12.40;;;5.90;;
15340;SDS011;7770;52.158;5.372;2023-07-16T03:57:29;10.60;;;5.77;;
15340;SDS011;7770;52.158;5.372;2023-07-16T04:00:16;9.33;;;6.00;;
15340;SDS011;7770;52.158;5.372;2023-07-16T04:03:02;10.07;;;6.33;;
15340;SDS011;7770;52.158;5.372;2023-07-16T04:05:48;10.60;;;6.10;;
15340;SDS011;7770;52.158;5.372;2023-07-16T04:08:34;9.23;;;6.00;;
15340;SDS011;7770;52.158;5.372;2023-07-16T04:11:20;11.67;;;6.20;;
15340;SDS011;7770;52.158;5.372;2023-07-16T04:14:06;11.83;;;5.70;;
15340;SDS011;7770;52.158;5.372;2023-07-16T04:16:52;12.73;;;6.57;;
15340;SDS011;7770;52.158;5.372;2023-07-16T04:19:38;9.33;;;6.37;;
15340;SDS011;7770;52.158;5.372;2023-07-16T04:22:24;9.77;;;6.43;;
15340;SDS011;7770;52.158;5.372;2023-07-16T04:25:10;8.97;;;6.30;;
15340;SDS011;7770;52.158;5.372;2023-07-16T04:27:56;10.83;;;7.00;;
15340;SDS011;7770;52.158;5.372;2023-07-16T04:30:42;12.10;;;7.13;;
15340;SDS011;7770;52.158;5.372;2023-07-16T04:33:28;10.27;;;7.27;;
15340;SDS011;7770;52.158;5.372;2023-07-16T04:36:15;10.67;;;7.13;;
15340;SDS011;7770;52.158;5.372;2023-07-16T04:39:01;12.80;;;7.63;;
15340;SDS011;7770;52.158;5.372;2023-07-16T04:41:48;11.90;;;7.60;;
15340;SDS011;7770;52.158;5.372;2023-07-16T04:44:34;12.47;;;7.60;;
15340;SDS011;7770;52.158;5.372;2023-07-16T04:47:20;13.73;;;8.27;;
15340;SDS011;7770;52.158;5.372;2023-07-16T04:50:06;10.87;;;7.70;;
15340;SDS011;7770;52.158;5.372;2023-07-16T04:52:52;10.60;;;7.30;;
15340;SDS011;7770;52.158;5.372;2023-07-16T04:55:38;13.53;;;7.33;;
15340;SDS011;7770;52.158;5.372;2023-07-16T04:58:25;11.17;;;7.57;;
15340;SDS011;7770;52.158;5.372;2023-07-16T05:01:11;12.93;;;8.00;;
15340;SDS011;7770;52.158;5.372;2023-07-16T05:03:57;10.70;;;7.20;;
15340;SDS011;7770;52.158;5.372;2023-07-16T05:06:43;12.50;;;8.13;;
15340;SDS011;7770;52.158;5.372;2023-07-16T05:09:29;8.97;;;7.50;;
15340;SDS011;7770;52.158;5.372;2023-07-16T05:12:15;9.93;;;7.27;;
15340;SDS011;7770;52.158;5.372;2023-07-16T05:15:01;11.80;;;7.57;;
15340;SDS011;7770;52.158;5.372;2023-07-16T05:17:47;11.50;;;7.53;;
15340;SDS011;7770;52.158;5.372;2023-07-16T05:20:33;13.93;;;7.83;;
15340;SDS011;7770;52.158;5.372;2023-07-16T05:23:19;12.97;;;7.80;;
15340;SDS011;7770;52.158;5.372;2023-07-16T05:26:06;11.40;;;6.83;;
15340;SDS011;7770;52.158;5.372;2023-07-16T05:28:52;8.53;;;7.23;;
15340;SDS011;7770;52.158;5.372;2023-07-16T05:31:38;10.17;;;7.27;;
15340;SDS011;7770;52.158;5.372;2023-07-16T05:34:24;8.73;;;7.00;;
15340;SDS011;7770;52.158;5.372;2023-07-16T05:37:10;8.80;;;7.10;;
15340;SDS011;7770;52.158;5.372;2023-07-16T05:39:56;11.17;;;7.27;;
15340;SDS011;7770;52.158;5.372;2023-07-16T05:42:42;9.30;;;7.57;;
15340;SDS011;7770;52.158;5.372;2023-07-16T05:45:29;10.73;;;6.93;;
15340;SDS011;7770;52.158;5.372;2023-07-16T05:48:15;8.73;;;7.03;;
15340;SDS011;7770;52.158;5.372;2023-07-16T05:51:01;10.67;;;7.40;;
15340;SDS011;7770;52.158;5.372;2023-07-16T05:53:47;12.03;;;7.83;;
15340;SDS011;7770;52.158;5.372;2023-07-16T05:56:33;9.80;;;7.67;;
15340;SDS011;7770;52.158;5.372;2023-07-16T05:59:19;8.97;;;7.77;;
15340;SDS011;7770;52.158;5.372;2023-07-16T06:02:05;10.43;;;7.47;;
15340;SDS011;7770;52.158;5.372;2023-07-16T06:04:51;13.63;;;7.60;;
15340;SDS011;7770;52.158;5.372;2023-07-16T06:07:37;10.83;;;7.17;;
15340;SDS011;7770;52.158;5.372;2023-07-16T06:10:23;10.47;;;7.77;;
15340;SDS011;7770;52.158;5.372;2023-07-16T06:13:09;11.70;;;8.10;;
15340;SDS011;7770;52.158;5.372;2023-07-16T06:15:55;11.70;;;7.83;;
15340;SDS011;7770;52.158;5.372;2023-07-16T06:18:41;9.63;;;8.30;;
15340;SDS011;7770;52.158;5.372;2023-07-16T06:21:27;11.03;;;7.53;;
15340;SDS011;7770;52.158;5.372;2023-07-16T06:24:13;9.97;;;8.00;;
15340;SDS011;7770;52.158;5.372;2023-07-16T06:26:59;13.50;;;8.70;;
15340;SDS011;7770;52.158;5.372;2023-07-16T06:29:45;10.57;;;7.87;;
15340;SDS011;7770;52.158;5.372;2023-07-16T06:32:31;12.60;;;7.87;;
15340;SDS011;7770;52.158;5.372;2023-07-16T06:35:17;12.70;;;7.80;;
15340;SDS011;7770;52.158;5.372;2023-07-16T06:38:03;11.50;;;7.77;;
15340;SDS011;7770;52.158;5.372;2023-07-16T06:40:50;13.50;;;8.30;;
15340;SDS011;7770;52.158;5.372;2023-07-16T06:43:37;11.87;;;8.37;;
15340;SDS011;7770;52.158;5.372;2023-07-16T06:46:23;14.23;;;8.63;;
15340;SDS011;7770;52.158;5.372;2023-07-16T06:49:09;12.47;;;8.17;;
15340;SDS011;7770;52.158;5.372;2023-07-16T06:51:55;11.20;;;8.07;;
15340;SDS011;7770;52.158;5.372;2023-07-16T06:54:41;12.47;;;8.37;;
15340;SDS011;7770;52.158;5.372;2023-07-16T06:57:28;10.10;;;7.60;;
15340;SDS011;7770;52.158;5.372;2023-07-16T07:00:14;13.87;;;8.43;;
15340;SDS011;7770;52.158;5.372;2023-07-16T07:03:00;13.43;;;7.83;;
15340;SDS011;7770;52.158;5.372;2023-07-16T07:05:46;12.13;;;8.20;;
15340;SDS011;7770;52.158;5.372;2023-07-16T07:08:32;13.00;;;8.40;;
15340;SDS011;7770;52.158;5.372;2023-07-16T07:11:18;11.10;;;8.00;;
15340;SDS011;7770;52.158;5.372;2023-07-16T07:14:04;11.80;;;8.20;;
15340;SDS011;7770;52.158;5.372;2023-07-16T07:16:50;10.13;;;8.20;;
15340;SDS011;7770;52.158;5.372;2023-07-16T07:19:36;13.33;;;8.07;;
15340;SDS011;7770;52.158;5.372;2023-07-16T07:22:22;11.37;;;7.27;;
15340;SDS011;7770;52.158;5.372;2023-07-16T07:25:09;9.07;;;7.73;;
15340;SDS011;7770;52.158;5.372;2023-07-16T07:27:55;12.00;;;7.80;;
15340;SDS011;7770;52.158;5.372;2023-07-16T07:30:41;14.83;;;8.27;;
15340;SDS011;7770;52.158;5.372;2023-07-16T07:33:26;9.40;;;7.40;;
15340;SDS011;7770;52.158;5.372;2023-07-16T07:36:13;12.90;;;8.00;;
15340;SDS011;7770;52.158;5.372;2023-07-16T07:38:59;10.90;;;7.10;;
15340;SDS011;7770;52.158;5.372;2023-07-16T07:41:45;11.33;;;7.70;;
15340;SDS011;7770;52.158;5.372;2023-07-16T07:44:31;10.43;;;7.83;;
15340;SDS011;7770;52.158;5.372;2023-07-16T07:47:17;11.87;;;7.73;;
15340;SDS011;7770;52.158;5.372;2023-07-16T07:50:04;9.25;;;7.85;;
15340;SDS011;7770;52.158;5.372;2023-07-16T07:52:50;9.77;;;7.80;;
15340;SDS011;7770;52.158;5.372;2023-07-16T07:55:36;10.30;;;8.60;;
15340;SDS011;7770;52.158;5.372;2023-07-16T07:58:22;10.90;;;8.40;;
15340;SDS011;7770;52.158;5.372;2023-07-16T08:01:08;14.10;;;8.93;;
15340;SDS011;7770;52.158;5.372;2023-07-16T08:03:54;11.87;;;8.20;;
15340;SDS011;7770;52.158;5.372;2023-07-16T08:06:40;9.33;;;7.93;;
15340;SDS011;7770;52.158;5.372;2023-07-16T08:09:26;10.73;;;8.17;;
15340;SDS011;7770;52.158;5.372;2023-07-16T08:12:13;7.70;;;6.83;;
15340;SDS011;7770;52.158;5.372;2023-07-16T08:14:59;12.00;;;7.20;;
15340;SDS011;7770;52.158;5.372;2023-07-16T08:17:45;10.68;;;7.72;;
15340;SDS011;7770;52.158;5.372;2023-07-16T08:20:31;10.35;;;7.57;;
15340;SDS011;7770;52.158;5.372;2023-07-16T08:23:17;10.43;;;7.80;;
15340;SDS011;7770;52.158;5.372;2023-07-16T08:26:03;7.82;;;7.00;;
15340;SDS011;7770;52.158;5.372;2023-07-16T08:28:49;9.37;;;8.40;;
15340;SDS011;7770;52.158;5.372;2023-07-16T08:31:35;8.70;;;7.13;;
15340;SDS011;7770;52.158;5.372;2023-07-16T08:34:21;8.35;;;7.28;;
15340;SDS011;7770;52.158;5.372;2023-07-16T08:37:07;10.70;;;7.50;;
15340;SDS011;7770;52.158;5.372;2023-07-16T08:39:53;10.23;;;7.40;;
15340;SDS011;7770;52.158;5.372;2023-07-16T08:42:39;9.23;;;8.20;;
15340;SDS011;7770;52.158;5.372;2023-07-16T08:45:26;12.10;;;8.80;;
15340;SDS011;7770;52.158;5.372;2023-07-16T08:48:15;12.50;;;8.53;;
15340;SDS011;7770;52.158;5.372;2023-07-16T08:51:03;13.40;;;8.83;;
15340;SDS011;7770;52.158;5.372;2023-07-16T08:53:52;14.20;;;8.33;;
15340;SDS011;7770;52.158;5.372;2023-07-16T08:56:38;11.33;;;8.37;;
15340;SDS011;7770;52.158;5.372;2023-07-16T08:59:24;9.50;;;7.73;;
15340;SDS011;7770;52.158;5.372;2023-07-16T09:02:12;9.90;;;7.97;;
15340;SDS011;7770;52.158;5.372;2023-07-16T09:04:59;9.52;;;7.35;;
15340;SDS011;7770;52.158;5.372;2023-07-16T09:07:45;9.43;;;7.90;;
15340;SDS011;7770;52.158;5.372;2023-07-16T09:10:31;11.40;;;7.90;;
15340;SDS011;7770;52.158;5.372;2023-07-16T09:13:18;8.45;;;7.65;;
15340;SDS011;7770;52.158;5.372;2023-07-16T09:16:04;8.45;;;7.55;;
15340;SDS011;7770;52.158;5.372;2023-07-16T09:18:50;9.75;;;8.23;;
15340;SDS011;7770;52.158;5.372;2023-07-16T09:21:36;10.80;;;8.30;;
15340;SDS011;7770;52.158;5.372;2023-07-16T09:24:22;11.43;;;8.57;;
15340;SDS011;7770;52.158;5.372;2023-07-16T09:27:11;9.60;;;8.33;;
15340;SDS011;7770;52.158;5.372;2023-07-16T09:29:57;11.13;;;8.53;;
15340;SDS011;7770;52.158;5.372;2023-07-16T09:32:47;11.67;;;8.43;;
15340;SDS011;7770;52.158;5.372;2023-07-16T09:35:33;8.80;;;8.00;;
15340;SDS011;7770;52.158;5.372;2023-07-16T09:38:21;11.37;;;8.53;;
15340;SDS011;7770;52.158;5.372;2023-07-16T09:41:09;12.53;;;7.70;;
15340;SDS011;7770;52.158;5.372;2023-07-16T09:43:55;11.77;;;8.50;;
15340;SDS011;7770;52.158;5.372;2023-07-16T09:46:42;9.20;;;7.73;;
15340;SDS011;7770;52.158;5.372;2023-07-16T09:49:29;9.23;;;8.23;;
15340;SDS011;7770;52.158;5.372;2023-07-16T09:52:15;9.80;;;8.20;;
15340;SDS011;7770;52.158;5.372;2023-07-16T09:55:02;11.87;;;8.10;;
15340;SDS011;7770;52.158;5.372;2023-07-16T09:57:50;11.37;;;8.43;;
15340;SDS011;7770;52.158;5.372;2023-07-16T10:00:40;10.20;;;8.37;;
15340;SDS011;7770;52.158;5.372;2023-07-16T10:03:27;12.53;;;8.17;;
15340;SDS011;7770;52.158;5.372;2023-07-16T10:06:13;10.43;;;7.83;;
15340;SDS011;7770;52.158;5.372;2023-07-16T10:08:59;10.70;;;8.27;;
15340;SDS011;7770;52.158;5.372;2023-07-16T10:11:45;10.97;;;8.47;;
15340;SDS011;7770;52.158;5.372;2023-07-16T10:14:32;9.70;;;7.90;;
15340;SDS011;7770;52.158;5.372;2023-07-16T10:17:29;12.57;;;9.03;;
15340;SDS011;7770;52.158;5.372;2023-07-16T10:20:17;9.63;;;8.03;;
15340;SDS011;7770;52.158;5.372;2023-07-16T10:23:36;9.63;;;7.20;;
15340;SDS011;7770;52.158;5.372;2023-07-16T10:26:27;11.80;;;8.20;;
15340;SDS011;7770;52.158;5.372;2023-07-16T10:29:14;10.40;;;7.93;;
15340;SDS011;7770;52.158;5.372;2023-07-16T10:32:01;12.30;;;8.57;;
15340;SDS011;7770;52.158;5.372;2023-07-16T10:34:47;10.60;;;8.47;;
15340;SDS011;7770;52.158;5.372;2023-07-16T10:37:33;10.03;;;8.10;;
15340;SDS011;7770;52.158;5.372;2023-07-16T10:40:20;11.80;;;8.33;;
15340;SDS011;7770;52.158;5.372;2023-07-16T10:43:06;9.27;;;7.80;;
15340;SDS011;7770;52.158;5.372;2023-07-16T10:45:52;8.97;;;7.50;;
15340;SDS011;7770;52.158;5.372;2023-07-16T10:48:45;10.57;;;7.33;;
15340;SDS011;7770;52.158;5.372;2023-07-16T10:51:32;8.83;;;7.17;;
15340;SDS011;7770;52.158;5.372;2023-07-16T10:54:19;7.93;;;7.03;;
15340;SDS011;7770;52.158;5.372;2023-07-16T10:57:05;8.93;;;7.87;;
15340;SDS011;7770;52.158;5.372;2023-07-16T10:59:52;9.57;;;7.93;;
15340;SDS011;7770;52.158;5.372;2023-07-16T11:02:39;7.77;;;6.90;;
15340;SDS011;7770;52.158;5.372;2023-07-16T11:05:26;11.03;;;7.30;;
15340;SDS011;7770;52.158;5.372;2023-07-16T11:08:23;9.93;;;6.63;;
15340;SDS011;7770;52.158;5.372;2023-07-16T11:11:10;9.40;;;6.53;;
15340;SDS011;7770;52.158;5.372;2023-07-16T11:13:56;8.73;;;6.70;;
15340;SDS011;7770;52.158;5.372;2023-07-16T11:16:42;7.23;;;6.07;;
15340;SDS011;7770;52.158;5.372;2023-07-16T11:19:28;6.30;;;5.67;;
15340;SDS011;7770;52.158;5.372;2023-07-16T11:22:16;6.33;;;5.30;;
15340;SDS011;7770;52.158;5.372;2023-07-16T11:25:02;8.40;;;5.60;;
15340;SDS011;7770;52.158;5.372;2023-07-16T11:27:49;7.27;;;5.33;;
15340;SDS011;7770;52.158;5.372;2023-07-16T11:30:41;6.43;;;5.60;;
15340;SDS011;7770;52.158;5.372;2023-07-16T11:33:34;7.73;;;5.20;;
15340;SDS011;7770;52.158;5.372;2023-07-16T11:36:20;7.70;;;5.80;;
15340;SDS011;7770;52.158;5.372;2023-07-16T11:39:06;5.70;;;5.20;;
15340;SDS011;7770;52.158;5.372;2023-07-16T11:41:56;6.80;;;5.87;;
15340;SDS011;7770;52.158;5.372;2023-07-16T11:44:42;6.80;;;6.10;;
15340;SDS011;7770;52.158;5.372;2023-07-16T11:47:34;7.03;;;6.17;;
15340;SDS011;7770;52.158;5.372;2023-07-16T11:50:20;6.90;;;5.43;;
15340;SDS011;7770;52.158;5.372;2023-07-16T11:53:06;8.47;;;5.00;;
15340;SDS011;7770;52.158;5.372;2023-07-16T11:55:52;7.70;;;5.17;;
15340;SDS011;7770;52.158;5.372;2023-07-16T11:58:38;6.67;;;5.20;;
15340;SDS011;7770;52.158;5.372;2023-07-16T12:01:24;6.60;;;4.70;;
15340;SDS011;7770;52.158;5.372;2023-07-16T12:04:10;6.90;;;4.70;;
15340;SDS011;7770;52.158;5.372;2023-07-16T12:06:56;6.00;;;3.90;;
15340;SDS011;7770;52.158;5.372;2023-07-16T12:09:42;5.07;;;3.53;;
15340;SDS011;7770;52.158;5.372;2023-07-16T12:12:27;5.43;;;3.50;;
15340;SDS011;7770;52.158;5.372;2023-07-16T12:15:14;4.37;;;3.30;;
15340;SDS011;7770;52.158;5.372;2023-07-16T12:18:00;5.97;;;3.50;;
15340;SDS011;7770;52.158;5.372;2023-07-16T12:20:46;6.10;;;3.17;;
15340;SDS011;7770;52.158;5.372;2023-07-16T12:23:32;6.30;;;3.40;;
15340;SDS011;7770;52.158;5.372;2023-07-16T12:26:18;5.27;;;3.30;;
15340;SDS011;7770;52.158;5.372;2023-07-16T12:29:03;4.73;;;3.40;;
15340;SDS011;7770;52.158;5.372;2023-07-16T12:31:49;4.23;;;3.30;;
15340;SDS011;7770;52.158;5.372;2023-07-16T12:34:35;7.60;;;3.43;;
15340;SDS011;7770;52.158;5.372;2023-07-16T12:37:22;4.37;;;3.10;;
15340;SDS011;7770;52.158;5.372;2023-07-16T12:40:08;7.53;;;3.50;;
15340;SDS011;7770;52.158;5.372;2023-07-16T12:42:54;6.50;;;3.47;;
15340;SDS011;7770;52.158;5.372;2023-07-16T12:45:40;4.83;;;3.30;;
15340;SDS011;7770;52.158;5.372;2023-07-16T12:48:26;4.60;;;3.27;;
15340;SDS011;7770;52.158;5.372;2023-07-16T12:51:12;7.73;;;3.70;;
15340;SDS011;7770;52.158;5.372;2023-07-16T12:53:58;5.85;;;3.30;;
15340;SDS011;7770;52.158;5.372;2023-07-16T12:56:46;6.38;;;3.70;;
15340;SDS011;7770;52.158;5.372;2023-07-16T12:59:32;6.27;;;3.30;;
15340;SDS011;7770;52.158;5.372;2023-07-16T13:02:18;6.50;;;3.40;;
15340;SDS011;7770;52.158;5.372;2023-07-16T13:05:04;5.00;;;3.07;;
15340;SDS011;7770;52.158;5.372;2023-07-16T13:07:50;5.70;;;2.90;;
15340;SDS011;7770;52.158;5.372;2023-07-16T13:10:36;8.00;;;3.23;;
15340;SDS011;7770;52.158;5.372;2023-07-16T13:13:22;5.77;;;3.20;;
15340;SDS011;7770;52.158;5.372;2023-07-16T13:16:08;5.43;;;3.50;;
15340;SDS011;7770;52.158;5.372;2023-07-16T13:18:54;5.13;;;2.67;;
15340;SDS011;7770;52.158;5.372;2023-07-16T13:21:40;5.40;;;3.10;;
15340;SDS011;7770;52.158;5.372;2023-07-16T13:24:26;6.20;;;2.80;;
15340;SDS011;7770;52.158;5.372;2023-07-16T13:27:19;7.17;;;3.17;;
15340;SDS011;7770;52.158;5.372;2023-07-16T13:30:09;10.07;;;3.00;;
15340;SDS011;7770;52.158;5.372;2023-07-16T13:32:57;7.27;;;2.87;;
15340;SDS011;7770;52.158;5.372;2023-07-16T13:35:43;3.20;;;2.50;;
15340;SDS011;7770;52.158;5.372;2023-07-16T13:38:29;4.20;;;2.67;;
15340;SDS011;7770;52.158;5.372;2023-07-16T13:41:16;5.00;;;2.83;;
15340;SDS011;7770;52.158;5.372;2023-07-16T13:44:03;4.17;;;2.70;;
15340;SDS011;7770;52.158;5.372;2023-07-16T13:46:49;4.47;;;2.60;;
15340;SDS011;7770;52.158;5.372;2023-07-16T13:49:35;6.37;;;2.90;;
15340;SDS011;7770;52.158;5.372;2023-07-16T13:52:21;4.83;;;2.97;;
15340;SDS011;7770;52.158;5.372;2023-07-16T13:55:07;6.83;;;3.00;;
15340;SDS011;7770;52.158;5.372;2023-07-16T13:57:53;5.67;;;2.93;;
15340;SDS011;7770;52.158;5.372;2023-07-16T14:00:40;5.23;;;2.90;;
15340;SDS011;7770;52.158;5.372;2023-07-16T14:03:27;7.13;;;3.30;;
15340;SDS011;7770;52.158;5.372;2023-07-16T14:06:13;6.43;;;3.07;;
15340;SDS011;7770;52.158;5.372;2023-07-16T14:08:59;4.47;;;2.67;;
15340;SDS011;7770;52.158;5.372;2023-07-16T14:11:46;5.67;;;2.70;;
15340;SDS011;7770;52.158;5.372;2023-07-16T14:14:33;5.13;;;2.42;;
15340;SDS011;7770;52.158;5.372;2023-07-16T14:17:19;5.80;;;2.57;;
15340;SDS011;7770;52.158;5.372;2023-07-16T14:20:05;5.47;;;2.80;;
15340;SDS011;7770;52.158;5.372;2023-07-16T14:22:52;4.80;;;2.50;;
15340;SDS011;7770;52.158;5.372;2023-07-16T14:25:38;7.53;;;2.97;;
15340;SDS011;7770;52.158;5.372;2023-07-16T14:28:24;7.00;;;2.70;;
15340;SDS011;7770;52.158;5.372;2023-07-16T14:31:10;6.63;;;2.90;;
15340;SDS011;7770;52.158;5.372;2023-07-16T14:33:56;7.07;;;2.87;;
15340;SDS011;7770;52.158;5.372;2023-07-16T14:36:43;7.30;;;2.97;;
15340;SDS011;7770;52.158;5.372;2023-07-16T14:39:29;6.47;;;2.80;;
15340;SDS011;7770;52.158;5.372;2023-07-16T14:42:15;5.60;;;2.87;;
15340;SDS011;7770;52.158;5.372;2023-07-16T14:45:01;5.57;;;3.17;;
15340;SDS011;7770;52.158;5.372;2023-07-16T14:47:48;7.67;;;3.20;;
15340;SDS011;7770;52.158;5.372;2023-07-16T14:50:34;6.73;;;2.93;;
15340;SDS011;7770;52.158;5.372;2023-07-16T14:53:20;7.17;;;2.87;;
15340;SDS011;7770;52.158;5.372;2023-07-16T14:56:06;7.33;;;3.10;;
15340;SDS011;7770;52.158;5.372;2023-07-16T14:58:52;4.87;;;2.83;;
15340;SDS011;7770;52.158;5.372;2023-07-16T15:01:38;5.40;;;2.83;;
15340;SDS011;7770;52.158;5.372;2023-07-16T15:04:24;4.53;;;3.10;;
15340;SDS011;7770;52.158;5.372;2023-07-16T15:07:10;5.07;;;3.13;;
15340;SDS011;7770;52.158;5.372;2023-07-16T15:09:56;7.73;;;3.47;;
15340;SDS011;7770;52.158;5.372;2023-07-16T15:12:42;5.73;;;3.17;;
15340;SDS011;7770;52.158;5.372;2023-07-16T15:15:29;6.43;;;3.10;;
15340;SDS011;7770;52.158;5.372;2023-07-16T15:18:15;6.60;;;3.37;;
15340;SDS011;7770;52.158;5.372;2023-07-16T15:21:01;6.87;;;3.37;;
15340;SDS011;7770;52.158;5.372;2023-07-16T15:23:48;5.87;;;3.23;;
15340;SDS011;7770;52.158;5.372;2023-07-16T15:26:34;4.47;;;2.93;;
15340;SDS011;7770;52.158;5.372;2023-07-16T15:29:20;4.57;;;2.97;;
15340;SDS011;7770;52.158;5.372;2023-07-16T15:32:06;6.20;;;3.43;;
15340;SDS011;7770;52.158;5.372;2023-07-16T15:34:52;6.63;;;3.17;;
15340;SDS011;7770;52.158;5.372;2023-07-16T15:37:38;5.57;;;3.47;;
15340;SDS011;7770;52.158;5.372;2023-07-16T15:40:25;9.20;;;3.00;;
15340;SDS011;7770;52.158;5.372;2023-07-16T15:43:11;4.33;;;3.10;;
15340;SDS011;7770;52.158;5.372;2023-07-16T15:45:57;6.30;;;3.37;;
15340;SDS011;7770;52.158;5.372;2023-07-16T15:48:43;4.57;;;2.93;;
15340;SDS011;7770;52.158;5.372;2023-07-16T15:51:30;5.17;;;2.97;;
15340;SDS011;7770;52.158;5.372;2023-07-16T15:54:16;5.33;;;3.17;;
15340;SDS011;7770;52.158;5.372;2023-07-16T15:57:03;6.50;;;2.97;;
15340;SDS011;7770;52.158;5.372;2023-07-16T15:59:49;5.37;;;3.10;;
15340;SDS011;7770;52.158;5.372;2023-07-16T16:02:35;5.53;;;3.20;;
15340;SDS011;7770;52.158;5.372;2023-07-16T16:05:21;5.10;;;3.03;;
15340;SDS011;7770;52.158;5.372;2023-07-16T16:08:17;5.63;;;2.90;;
15340;SDS011;7770;52.158;5.372;2023-07-16T16:11:04;7.83;;;3.00;;
15340;SDS011;7770;52.158;5.372;2023-07-16T16:13:50;4.40;;;3.13;;
15340;SDS011;7770;52.158;5.372;2023-07-16T16:16:39;4.67;;;3.00;;
15340;SDS011;7770;52.158;5.372;2023-07-16T16:19:25;5.40;;;2.90;;
15340;SDS011;7770;52.158;5.372;2023-07-16T16:22:11;5.43;;;3.10;;
15340;SDS011;7770;52.158;5.372;2023-07-16T16:24:57;7.70;;;3.60;;
15340;SDS011;7770;52.158;5.372;2023-07-16T16:27:45;6.70;;;3.50;;
15340;SDS011;7770;52.158;5.372;2023-07-16T16:30:32;6.13;;;3.40;;
15340;SDS011;7770;52.158;5.372;2023-07-16T16:33:19;5.17;;;3.23;;
15340;SDS011;7770;52.158;5.372;2023-07-16T16:36:09;5.93;;;3.30;;
15340;SDS011;7770;52.158;5.372;2023-07-16T16:38:58;4.23;;;2.93;;
15340;SDS011;7770;52.158;5.372;2023-07-16T16:41:44;8.70;;;3.30;;
15340;SDS011;7770;52.158;5.372;2023-07-16T16:44:33;5.37;;;3.40;;
15340;SDS011;7770;52.158;5.372;2023-07-16T16:47:19;4.80;;;3.10;;
15340;SDS011;7770;52.158;5.372;2023-07-16T16:50:05;5.83;;;3.80;;
15340;SDS011;7770;52.158;5.372;2023-07-16T16:52:52;5.03;;;3.37;;
15340;SDS011;7770;52.158;5.372;2023-07-16T16:55:43;7.03;;;3.50;;